Time;durP1;ratioP1;P1;durP2;ratioP2;P2;SDS_P1;SDS_P2;PMS_P1;PMS_P2;Temp;Humidity;BMP_temperature;BMP_pressure;BME280_temperature;BME280_humidity;BME280_pressure;Samples;Min_cycle;Max_cycle;Signal;HPM_P1;HPM_P2
2020/12/16 00:00:21;;;;;;;21.40;5.88;;;26.10;87.10;;;;;;5113926;28;20016;-66
2020/12/16 00:02:48;;;;;;;17.70;5.38;;;26.20;87.60;;;;;;5113646;28;20525;-61
2020/12/16 00:05:17;;;;;;;20.90;6.25;;;26.40;87.10;;;;;;5113369;28;20035;-66
2020/12/16 00:07:44;;;;;;;24.38;6.00;;;26.50;87.00;;;;;;5113421;28;20027;-62
2020/12/16 00:10:12;;;;;;;16.10;5.70;;;26.50;86.80;;;;;;5113070;28;20509;-66
2020/12/16 00:12:41;;;;;;;25.00;6.30;;;26.50;87.20;;;;;;5112966;28;20040;-66
2020/12/16 00:15:10;;;;;;;31.35;7.47;;;26.60;86.80;;;;;;5113172;28;20066;-66
2020/12/16 00:17:38;;;;;;;25.45;6.30;;;26.70;86.20;;;;;;5113481;28;20132;-65
2020/12/16 00:20:07;;;;;;;20.70;6.70;;;26.70;86.60;;;;;;5113327;28;20028;-65
2020/12/16 00:22:37;;;;;;;21.00;6.55;;;26.70;86.40;;;;;;5113199;27;20030;-65
2020/12/16 00:25:06;;;;;;;24.42;6.53;;;26.80;86.20;;;;;;5112761;28;20410;-65
2020/12/16 00:27:34;;;;;;;32.70;7.72;;;26.90;86.30;;;;;;5113487;28;20023;-63
2020/12/16 00:30:02;;;;;;;20.60;6.82;;;27.00;86.00;;;;;;5094157;28;20367;-64
2020/12/16 00:32:29;;;;;;;26.58;7.55;;;27.10;85.10;;;;;;5113006;28;20031;-61
2020/12/16 00:34:57;;;;;;;25.38;6.47;;;27.00;86.10;;;;;;5113506;28;20035;-65
2020/12/16 00:37:24;;;;;;;25.02;9.23;;;27.00;85.90;;;;;;5112021;28;20030;-58
2020/12/16 00:39:54;;;;;;;37.30;23.52;;;27.00;86.00;;;;;;5112751;28;20035;-57
2020/12/16 00:42:22;;;;;;;32.95;12.98;;;27.00;85.90;;;;;;5093954;28;20415;-56
2020/12/16 00:44:49;;;;;;;24.48;10.93;;;27.00;86.60;;;;;;5112619;28;20030;-58
2020/12/16 00:47:16;;;;;;;26.58;13.95;;;27.00;85.20;;;;;;5112632;28;20107;-55
2020/12/16 00:49:44;;;;;;;31.23;16.77;;;27.00;85.50;;;;;;5112878;28;20020;-61
2020/12/16 00:52:11;;;;;;;37.63;21.45;;;27.10;85.40;;;;;;5112493;28;20501;-63
2020/12/16 00:54:39;;;;;;;25.27;10.15;;;27.10;85.50;;;;;;5113263;28;20055;-59
2020/12/16 00:57:06;;;;;;;33.70;16.02;;;27.10;84.40;;;;;;5112434;28;20069;-57
2020/12/16 00:59:33;;;;;;;21.80;12.85;;;27.20;84.50;;;;;;5092259;28;20028;-59
2020/12/16 01:02:04;;;;;;;28.77;13.38;;;27.20;85.00;;;;;;5110999;28;20027;-64
2020/12/16 01:04:31;;;;;;;28.88;12.40;;;27.30;85.70;;;;;;5113132;28;20481;-56
2020/12/16 01:06:59;;;;;;;29.15;12.55;;;27.30;85.10;;;;;;5094350;28;20449;-59
2020/12/16 01:09:26;;;;;;;25.15;11.35;;;27.30;85.30;;;;;;5112547;28;20027;-55
2020/12/16 01:11:56;;;;;;;24.73;11.75;;;27.30;85.40;;;;;;5113699;27;20042;-66
2020/12/16 01:14:24;;;;;;;19.67;10.57;;;27.30;85.30;;;;;;5112628;28;20351;-59
2020/12/16 01:16:52;;;;;;;39.08;16.65;;;27.30;84.70;;;;;;5113135;28;20032;-64
2020/12/16 01:19:19;;;;;;;25.67;16.00;;;27.30;84.40;;;;;;5111658;28;20036;-59
2020/12/16 01:21:46;;;;;;;31.85;11.30;;;27.30;84.30;;;;;;5111520;28;20114;-61
2020/12/16 01:24:14;;;;;;;21.08;9.88;;;27.30;84.70;;;;;;5092786;28;20079;-61
2020/12/16 01:26:47;;;;;;;21.17;9.40;;;27.30;83.60;;;;;;5111315;28;20073;-62
2020/12/16 01:29:16;;;;;;;21.35;9.20;;;27.20;84.30;;;;;;5111622;28;20015;-65
2020/12/16 01:31:46;;;;;;;18.23;8.60;;;27.10;84.40;;;;;;5109208;28;20051;-63
2020/12/16 01:34:19;;;;;;;20.73;8.07;;;27.20;84.50;;;;;;5110444;28;20449;-61
2020/12/16 01:36:49;;;;;;;26.58;8.95;;;27.10;84.40;;;;;;5110635;28;20015;-64
2020/12/16 01:39:17;;;;;;;24.67;8.85;;;27.10;84.20;;;;;;5111734;28;20058;-63
2020/12/16 01:41:48;;;;;;;20.25;8.60;;;27.10;84.30;;;;;;5112064;28;20476;-64
2020/12/16 01:44:17;;;;;;;17.70;8.05;;;27.10;84.00;;;;;;5112270;28;20028;-63
2020/12/16 01:46:53;;;;;;;23.02;8.60;;;27.10;84.10;;;;;;5112460;28;20504;-63
2020/12/16 01:49:22;;;;;;;16.77;7.72;;;27.10;84.10;;;;;;5112548;28;20457;-63
2020/12/16 01:51:58;;;;;;;16.58;7.68;;;27.10;84.00;;;;;;5112551;28;20115;-64
2020/12/16 01:54:26;;;;;;;17.42;7.28;;;27.10;84.10;;;;;;5112452;28;20189;-64
2020/12/16 01:56:57;;;;;;;18.40;7.68;;;27.00;84.20;;;;;;5112819;28;20370;-61
2020/12/16 01:59:25;;;;;;;18.45;7.20;;;27.10;83.90;;;;;;5112429;28;20031;-63
2020/12/16 02:01:55;;;;;;;17.05;6.75;;;27.10;83.70;;;;;;5112112;28;20104;-64
2020/12/16 02:04:28;;;;;;;22.15;8.00;;;27.10;83.30;;;;;;5111397;28;20444;-63
2020/12/16 02:06:59;;;;;;;16.80;7.53;;;27.10;83.30;;;;;;5112200;28;20486;-64
2020/12/16 02:09:26;;;;;;;16.77;6.68;;;27.00;83.40;;;;;;5112474;28;20027;-62
2020/12/16 02:11:54;;;;;;;14.10;6.75;;;27.00;83.50;;;;;;5094314;28;20039;-64
2020/12/16 02:14:21;;;;;;;17.63;7.38;;;27.10;83.60;;;;;;5111893;28;20382;-65
2020/12/16 02:16:48;;;;;;;17.00;7.07;;;27.10;83.50;;;;;;5111338;28;20028;-62
2020/12/16 02:19:22;;;;;;;16.15;6.63;;;27.10;83.20;;;;;;5093314;28;20067;-62
2020/12/16 02:21:50;;;;;;;13.13;6.07;;;27.00;83.60;;;;;;5116136;28;20020;-62
2020/12/16 02:24:18;;;;;;;14.70;6.10;;;27.10;83.60;;;;;;5115802;28;20029;-63
2020/12/16 02:26:46;;;;;;;13.80;6.28;;;27.10;83.30;;;;;;5116411;28;20030;-63
2020/12/16 02:29:13;;;;;;;14.25;5.10;;;27.10;83.00;;;;;;5116324;28;20101;-62
2020/12/16 02:31:42;;;;;;;10.60;6.03;;;27.10;83.00;;;;;;5116313;28;20024;-62
2020/12/16 02:34:09;;;;;;;14.77;5.82;;;27.00;83.50;;;;;;5115880;28;20481;-63
2020/12/16 02:36:36;;;;;;;16.67;6.15;;;27.00;83.40;;;;;;5116088;28;20091;-65
2020/12/16 02:39:04;;;;;;;11.57;5.00;;;27.00;83.30;;;;;;5115962;28;20535;-63
2020/12/16 02:41:31;;;;;;;12.38;5.32;;;27.00;83.50;;;;;;5115964;28;20504;-62
2020/12/16 02:43:59;;;;;;;15.40;5.25;;;27.00;83.50;;;;;;5116033;28;20121;-63
2020/12/16 02:46:26;;;;;;;12.30;5.18;;;26.90;83.50;;;;;;5097354;28;20027;-63
2020/12/16 02:48:53;;;;;;;12.52;5.72;;;27.00;83.40;;;;;;5115945;28;20069;-64
2020/12/16 02:51:21;;;;;;;16.08;5.43;;;26.90;83.20;;;;;;5115601;28;20024;-63
2020/12/16 02:53:48;;;;;;;10.98;5.15;;;27.00;82.80;;;;;;5115669;28;20497;-63
2020/12/16 02:56:15;;;;;;;18.00;5.50;;;27.00;82.70;;;;;;5115664;28;20062;-66
2020/12/16 02:58:46;;;;;;;12.50;4.68;;;27.00;82.60;;;;;;5115893;28;20039;-64
2020/12/16 03:01:14;;;;;;;15.60;5.47;;;26.90;82.80;;;;;;5115418;28;20077;-66
2020/12/16 03:03:41;;;;;;;15.85;5.18;;;26.90;83.10;;;;;;5115093;28;20027;-65
2020/12/16 03:06:14;;;;;;;14.32;5.75;;;26.80;83.10;;;;;;5114916;28;20100;-56
2020/12/16 03:08:42;;;;;;;13.50;5.65;;;26.70;83.30;;;;;;5115498;28;20028;-63
2020/12/16 03:11:17;;;;;;;18.30;5.57;;;26.60;83.50;;;;;;5114723;28;20047;-63
2020/12/16 03:13:44;;;;;;;15.27;5.18;;;26.60;83.90;;;;;;5115895;28;20126;-63
2020/12/16 03:16:18;;;;;;;14.60;5.80;;;26.50;84.20;;;;;;5115100;28;20470;-64
2020/12/16 03:18:46;;;;;;;14.57;4.43;;;26.50;85.00;;;;;;5114414;28;20343;-63
2020/12/16 03:21:24;;;;;;;15.55;5.55;;;26.40;84.40;;;;;;5115148;28;20138;-62
2020/12/16 03:23:55;;;;;;;12.60;4.47;;;26.40;84.80;;;;;;5114770;28;20027;-62
2020/12/16 03:26:23;;;;;;;21.00;5.30;;;26.30;84.90;;;;;;5114602;28;20386;-62
2020/12/16 03:28:50;;;;;;;10.95;4.20;;;26.30;85.10;;;;;;5114386;28;20023;-63
2020/12/16 03:31:18;;;;;;;10.52;4.30;;;26.30;85.20;;;;;;5113692;28;20027;-62
2020/12/16 03:33:46;;;;;;;12.02;4.80;;;26.20;85.20;;;;;;5114576;28;20321;-63
2020/12/16 03:36:20;;;;;;;13.82;4.55;;;26.20;85.30;;;;;;5114331;28;20032;-62
2020/12/16 03:38:48;;;;;;;13.35;4.65;;;26.20;85.50;;;;;;5114649;28;20024;-63
2020/12/16 03:41:17;;;;;;;12.48;4.50;;;26.10;85.70;;;;;;5114488;28;20034;-63
2020/12/16 03:43:48;;;;;;;14.02;5.07;;;26.10;85.80;;;;;;5114290;28;20106;-63
2020/12/16 03:46:16;;;;;;;13.05;4.43;;;26.10;86.00;;;;;;5114124;28;20024;-62
2020/12/16 03:48:44;;;;;;;13.10;4.40;;;26.00;86.10;;;;;;5114315;28;20478;-61
2020/12/16 03:51:14;;;;;;;10.85;4.35;;;26.00;86.30;;;;;;5113795;28;20099;-62
2020/12/16 03:53:42;;;;;;;14.23;4.78;;;26.00;86.50;;;;;;5114449;28;20020;-63
2020/12/16 03:56:12;;;;;;;13.10;5.40;;;25.90;86.80;;;;;;5113979;28;20354;-64
2020/12/16 03:58:49;;;;;;;15.77;4.88;;;25.90;86.80;;;;;;5095814;28;20050;-63
2020/12/16 04:01:21;;;;;;;12.43;4.20;;;25.80;86.90;;;;;;5114378;28;20027;-63
2020/12/16 04:03:48;;;;;;;14.82;4.70;;;25.80;87.20;;;;;;5114567;28;20022;-64
2020/12/16 04:06:16;;;;;;;15.55;4.47;;;25.70;87.20;;;;;;5114467;28;20028;-63
2020/12/16 04:08:45;;;;;;;19.55;5.95;;;25.70;87.30;;;;;;5113967;28;20098;-59
2020/12/16 04:11:17;;;;;;;21.88;6.03;;;25.70;88.60;;;;;;5113079;28;20023;-58
2020/12/16 04:13:45;;;;;;;24.08;5.25;;;25.60;88.80;;;;;;5104030;27;20081;-63
2020/12/16 04:16:18;;;;;;;22.73;5.18;;;25.50;89.00;;;;;;5108614;28;20107;-64
2020/12/16 04:18:46;;;;;;;21.08;4.85;;;25.40;89.50;;;;;;5109056;28;20568;-65
2020/12/16 04:21:15;;;;;;;33.28;5.40;;;25.40;89.60;;;;;;5110399;28;20054;-53
2020/12/16 04:23:43;;;;;;;30.52;6.43;;;25.40;89.40;;;;;;5109727;28;20131;-63
2020/12/16 04:26:10;;;;;;;25.13;5.68;;;25.30;89.70;;;;;;5107060;28;20035;-61
2020/12/16 04:28:38;;;;;;;27.33;6.70;;;25.30;89.90;;;;;;5109283;28;20051;-63
2020/12/16 04:31:08;;;;;;;25.60;5.45;;;25.30;89.70;;;;;;5111377;27;20046;-65
2020/12/16 04:33:36;;;;;;;23.00;5.88;;;25.20;89.90;;;;;;5110494;28;20069;-60
2020/12/16 04:36:04;;;;;;;23.55;6.95;;;25.20;89.70;;;;;;5106300;28;20027;-63
2020/12/16 04:38:31;;;;;;;25.70;7.07;;;25.20;90.00;;;;;;5110332;28;20473;-55
2020/12/16 04:40:58;;;;;;;29.83;6.90;;;25.30;89.70;;;;;;5110201;28;20020;-62
2020/12/16 04:43:26;;;;;;;28.92;7.20;;;25.30;89.70;;;;;;5108866;28;20034;-67
2020/12/16 04:45:53;;;;;;;17.48;5.68;;;25.40;89.50;;;;;;5107352;28;20672;-64
2020/12/16 04:48:21;;;;;;;20.42;5.47;;;25.40;89.30;;;;;;5110388;28;20384;-69
2020/12/16 04:50:48;;;;;;;22.48;5.53;;;25.30;89.00;;;;;;5107552;28;20024;-65
2020/12/16 04:53:19;;;;;;;16.95;5.13;;;25.40;89.20;;;;;;5109009;28;20494;-62
2020/12/16 04:55:48;;;;;;;18.15;5.35;;;25.40;88.90;;;;;;5107616;28;20080;-60
2020/12/16 04:58:15;;;;;;;26.35;6.03;;;25.40;88.80;;;;;;5109681;28;20122;-70
2020/12/16 05:00:42;;;;;;;21.65;6.50;;;25.30;88.90;;;;;;5109996;28;20106;-63
2020/12/16 05:03:11;;;;;;;22.05;4.63;;;25.40;88.80;;;;;;5109905;28;20054;-58
2020/12/16 05:05:39;;;;;;;21.52;6.07;;;25.40;88.30;;;;;;5108961;28;20482;-53
2020/12/16 05:08:14;;;;;;;17.27;5.15;;;25.40;88.40;;;;;;5107481;28;20027;-62
2020/12/16 05:10:51;;;;;;;20.52;5.00;;;25.40;88.20;;;;;;5109876;28;20036;-64
2020/12/16 05:13:22;;;;;;;20.35;4.53;;;25.40;88.00;;;;;;5109329;28;20038;-59
2020/12/16 05:15:50;;;;;;;23.85;5.60;;;25.30;88.10;;;;;;5087963;28;20080;-63
2020/12/16 05:18:22;;;;;;;26.30;5.38;;;25.30;88.40;;;;;;5109332;28;20047;-62
2020/12/16 05:21:05;;;;;;;20.50;4.85;;;25.40;88.20;;;;;;5109696;28;20091;-65
2020/12/16 05:23:35;;;;;;;21.23;5.32;;;25.30;88.10;;;;;;5110343;28;20016;-63
2020/12/16 05:26:02;;;;;;;18.77;5.18;;;25.30;88.00;;;;;;5106041;28;20063;-68
2020/12/16 05:28:33;;;;;;;20.38;4.22;;;25.20;88.40;;;;;;5109190;28;20103;-62
2020/12/16 05:31:07;;;;;;;24.30;4.93;;;25.20;88.20;;;;;;5109791;28;20042;-63
2020/12/16 05:33:49;;;;;;;24.63;5.63;;;25.10;88.60;;;;;;5107199;28;20040;-58
2020/12/16 05:36:30;;;;;;;24.05;4.80;;;25.10;89.00;;;;;;5105396;28;20020;-62
2020/12/16 05:38:58;;;;;;;16.50;4.03;;;25.10;88.90;;;;;;5106091;28;20055;-63
2020/12/16 05:41:31;;;;;;;17.30;3.33;;;25.10;88.80;;;;;;5108749;28;20034;-64
2020/12/16 05:44:20;;;;;;;20.83;4.47;;;25.10;88.70;;;;;;5106980;28;20424;-63
2020/12/16 05:46:49;;;;;;;17.35;3.90;;;25.20;88.70;;;;;;5104222;28;20031;-64
2020/12/16 05:49:27;;;;;;;14.98;4.05;;;25.10;88.70;;;;;;5108346;28;20133;-63
2020/12/16 05:52:03;;;;;;;23.38;4.18;;;25.10;88.60;;;;;;5107797;28;20036;-58
2020/12/16 05:54:32;;;;;;;28.65;5.45;;;25.20;88.60;;;;;;5100239;28;20142;-60
2020/12/16 05:57:18;;;;;;;25.98;5.82;;;25.20;88.60;;;;;;5103237;28;20020;-55
2020/12/16 06:00:06;;;;;;;25.73;11.18;;;25.20;88.60;;;;;;5107156;28;20035;-54
2020/12/16 06:02:38;;;;;;;32.47;11.88;;;25.10;88.50;;;;;;5090347;28;20499;-53
2020/12/16 06:05:14;;;;;;;24.92;7.68;;;25.00;88.70;;;;;;5107468;28;20027;-56
2020/12/16 06:07:49;;;;;;;28.20;6.40;;;24.90;89.00;;;;;;5102125;28;20418;-60
2020/12/16 06:10:17;;;;;;;26.75;7.03;;;24.90;89.40;;;;;;5106045;28;20028;-58
2020/12/16 06:12:45;;;;;;;27.95;7.45;;;24.90;89.40;;;;;;5107359;28;20454;-53
2020/12/16 06:15:17;;;;;;;30.88;7.70;;;24.80;89.50;;;;;;5107551;28;20455;-56
2020/12/16 06:17:49;;;;;;;30.98;6.05;;;24.80;89.60;;;;;;5104129;28;20101;-59
2020/12/16 06:20:20;;;;;;;;;;;24.80;90.00;;;;;;5107975;28;20438;-57
2020/12/16 06:22:49;;;;;;;26.25;6.90;;;24.80;89.80;;;;;;5110335;28;19903;-57
2020/12/16 06:25:18;;;;;;;34.95;7.72;;;24.80;89.70;;;;;;5110219;28;20043;-59
2020/12/16 06:27:51;;;;;;;23.85;6.93;;;24.80;89.60;;;;;;5109214;28;20039;-57
2020/12/16 06:30:28;;;;;;;29.75;6.90;;;24.80;89.80;;;;;;5111412;28;20127;-64
2020/12/16 06:33:36;;;;;;;25.42;5.38;;;24.80;90.00;;;;;;5111510;28;20131;-60
2020/12/16 06:36:06;;;;;;;31.38;6.38;;;24.70;90.00;;;;;;5077102;28;20125;-59
2020/12/16 06:38:48;;;;;;;27.20;6.88;;;24.80;90.20;;;;;;5111261;28;20028;-67
2020/12/16 06:41:21;;;;;;;29.13;6.68;;;24.80;90.20;;;;;;5111737;28;20133;-54
2020/12/16 06:43:51;;;;;;;23.60;6.32;;;24.90;90.00;;;;;;5111876;28;20091;-64
2020/12/16 06:46:30;;;;;;;28.30;6.70;;;24.80;90.20;;;;;;5111822;28;20044;-64
2020/12/16 06:49:06;;;;;;;27.23;7.00;;;24.80;90.30;;;;;;5110937;28;20152;-56
2020/12/16 06:51:45;;;;;;;25.17;6.63;;;24.80;90.10;;;;;;5110786;28;20047;-59
2020/12/16 06:54:21;;;;;;;30.70;7.95;;;24.80;90.00;;;;;;5109334;28;20107;-61
2020/12/16 06:56:50;;;;;;;36.53;8.25;;;24.80;90.30;;;;;;5110923;28;20382;-54
2020/12/16 06:59:43;;;;;;;34.78;7.25;;;24.90;90.20;;;;;;5110997;28;20049;-61
2020/12/16 07:02:12;;;;;;;35.20;6.95;;;24.90;90.50;;;;;;5090673;28;20024;-58
2020/12/16 07:04:39;;;;;;;35.92;7.65;;;24.90;90.40;;;;;;5103050;28;20038;-54
2020/12/16 07:07:07;;;;;;;27.63;7.13;;;24.90;90.30;;;;;;5109915;27;20482;-54
2020/12/16 07:09:34;;;;;;;35.25;7.68;;;24.90;89.90;;;;;;5109678;27;20020;-52
2020/12/16 07:12:02;;;;;;;29.25;7.60;;;24.90;90.00;;;;;;5110340;28;20390;-52
2020/12/16 07:14:57;;;;;;;29.25;7.43;;;24.80;90.10;;;;;;5111450;28;20016;-56
2020/12/16 07:17:25;;;;;;;34.90;7.32;;;24.80;90.20;;;;;;5104705;28;20100;-56
2020/12/16 07:19:53;;;;;;;29.05;8.32;;;24.70;90.00;;;;;;5111483;28;20441;-57
2020/12/16 07:22:26;;;;;;;31.27;6.65;;;24.70;90.10;;;;;;5112597;27;20023;-56
2020/12/16 07:24:55;;;;;;;35.97;7.00;;;24.70;90.00;;;;;;5112866;28;20081;-54
2020/12/16 07:27:26;;;;;;;36.42;7.63;;;24.60;90.10;;;;;;5108629;28;20087;-67
2020/12/16 07:30:03;;;;;;;33.05;7.85;;;24.60;90.20;;;;;;5111749;28;20020;-62
2020/12/16 07:32:30;;;;;;;31.92;7.47;;;24.50;90.20;;;;;;5109321;28;20039;-63
2020/12/16 07:35:00;;;;;;;33.33;7.40;;;24.60;90.20;;;;;;5112052;28;20024;-58
2020/12/16 07:37:30;;;;;;;30.48;7.25;;;24.60;90.10;;;;;;5107527;28;20454;-58
2020/12/16 07:39:57;;;;;;;36.28;7.53;;;24.60;90.10;;;;;;5110746;28;20047;-59
2020/12/16 07:42:32;;;;;;;42.03;8.70;;;24.70;89.80;;;;;;5112050;28;20023;-64
2020/12/16 07:45:02;;;;;;;34.13;8.10;;;24.60;89.60;;;;;;5111279;28;20047;-53
2020/12/16 07:47:30;;;;;;;40.25;7.75;;;24.60;90.00;;;;;;5104305;28;20028;-63
2020/12/16 07:49:58;;;;;;;32.78;7.78;;;24.60;89.80;;;;;;5092952;28;20114;-64
2020/12/16 07:52:27;;;;;;;36.90;7.75;;;24.60;89.80;;;;;;5111343;28;20092;-59
2020/12/16 07:54:55;;;;;;;33.05;8.10;;;24.60;89.40;;;;;;5110870;28;20024;-52
2020/12/16 07:57:34;;;;;;;36.08;7.25;;;24.60;89.80;;;;;;5107751;28;20135;-66
2020/12/16 08:00:02;;;;;;;38.78;7.72;;;24.50;90.10;;;;;;5110481;28;20023;-55
2020/12/16 08:02:29;;;;;;;29.42;7.82;;;24.40;90.40;;;;;;5111155;28;20032;-57
2020/12/16 08:05:04;;;;;;;39.30;7.43;;;24.40;90.60;;;;;;5110671;28;20031;-60
2020/12/16 08:07:32;;;;;;;31.45;6.90;;;24.50;90.20;;;;;;5105100;28;20043;-56
2020/12/16 08:10:01;;;;;;;35.08;8.82;;;24.50;90.50;;;;;;5109850;28;20035;-56
2020/12/16 08:12:36;;;;;;;24.42;7.50;;;24.40;90.80;;;;;;5109779;28;20081;-61
2020/12/16 08:15:15;;;;;;;29.60;7.28;;;24.50;90.20;;;;;;5111264;28;20012;-52
2020/12/16 08:17:43;;;;;;;25.38;6.38;;;24.50;90.70;;;;;;5110835;28;20044;-65
2020/12/16 08:20:20;;;;;;;28.23;7.13;;;24.40;90.20;;;;;;5112418;28;20043;-63
2020/12/16 08:22:49;;;;;;;34.63;7.65;;;24.40;90.90;;;;;;5112587;28;20062;-62
2020/12/16 08:25:18;;;;;;;35.40;7.75;;;24.30;90.60;;;;;;5113899;28;20103;-62
2020/12/16 08:27:47;;;;;;;35.10;6.78;;;24.10;90.40;;;;;;5112824;28;20362;-56
2020/12/16 08:30:20;;;;;;;38.40;8.18;;;24.20;91.30;;;;;;5112725;28;20019;-56
2020/12/16 08:32:56;;;;;;;32.25;7.75;;;24.40;91.40;;;;;;5112317;28;20081;-54
2020/12/16 08:35:31;;;;;;;35.35;7.75;;;24.40;90.80;;;;;;5111149;28;20501;-56
2020/12/16 08:38:07;;;;;;;40.55;7.13;;;24.30;91.90;;;;;;5112407;28;20095;-59
2020/12/16 08:40:40;;;;;;;35.83;6.75;;;24.30;91.00;;;;;;5109856;28;20073;-57
2020/12/16 08:43:21;;;;;;;26.70;8.63;;;24.40;90.90;;;;;;5102212;28;20027;-57
2020/12/16 08:45:58;;;;;;;32.25;7.78;;;24.40;91.70;;;;;;5092803;28;20069;-61
2020/12/16 08:48:25;;;;;;;39.15;7.72;;;24.20;90.60;;;;;;5092796;28;20043;-60
2020/12/16 08:51:10;;;;;;;38.00;8.20;;;24.20;91.30;;;;;;5092582;28;20051;-59
2020/12/16 08:54:00;;;;;;;43.50;8.57;;;24.30;91.70;;;;;;5092472;28;20036;-56
2020/12/16 08:56:39;;;;;;;42.22;8.38;;;24.10;91.10;;;;;;5092699;28;20489;-59
2020/12/16 08:59:22;;;;;;;44.75;8.15;;;24.10;91.60;;;;;;5092994;28;20101;-60
2020/12/16 09:01:55;;;;;;;35.67;7.28;;;24.00;91.20;;;;;;5093137;28;20023;-60
2020/12/16 09:04:26;;;;;;;48.47;8.05;;;24.00;91.70;;;;;;5093167;28;20386;-58
2020/12/16 09:07:08;;;;;;;35.28;9.00;;;24.10;91.80;;;;;;5092799;28;20036;-58
2020/12/16 09:09:40;;;;;;;43.78;8.35;;;24.00;91.30;;;;;;5092020;28;20040;-56
2020/12/16 09:12:22;;;;;;;33.17;8.00;;;23.90;91.70;;;;;;5091657;28;20073;-58
2020/12/16 09:15:03;;;;;;;37.05;8.40;;;23.90;91.70;;;;;;5107119;28;20031;-52
2020/12/16 09:17:34;;;;;;;33.78;7.00;;;23.90;91.60;;;;;;5112495;28;20130;-56
2020/12/16 09:20:01;;;;;;;31.33;7.10;;;23.90;91.90;;;;;;5112879;28;20061;-52
2020/12/16 09:22:31;;;;;;;38.97;8.52;;;24.00;92.40;;;;;;5112732;28;20024;-59
2020/12/16 09:25:00;;;;;;;42.95;7.93;;;23.90;91.60;;;;;;5112522;28;20437;-56
2020/12/16 09:27:27;;;;;;;42.67;8.95;;;23.90;92.00;;;;;;5112018;28;20572;-61
2020/12/16 09:29:55;;;;;;;37.25;7.20;;;23.90;92.10;;;;;;5111870;28;20020;-56
2020/12/16 09:32:26;;;;;;;41.42;8.55;;;23.80;92.00;;;;;;5112110;28;20032;-52
2020/12/16 09:34:55;;;;;;;31.95;6.60;;;23.90;92.30;;;;;;5112113;28;20408;-60
2020/12/16 09:37:25;;;;;;;49.30;9.23;;;24.00;92.10;;;;;;5112342;28;20040;-62
2020/12/16 09:40:07;;;;;;;41.83;8.75;;;23.90;93.20;;;;;;5111980;28;20027;-53
2020/12/16 09:42:35;;;;;;;37.03;7.60;;;24.00;92.50;;;;;;5110771;28;20085;-59
2020/12/16 09:45:15;;;;;;;44.83;8.18;;;23.90;91.70;;;;;;5092464;28;20076;-61
2020/12/16 09:47:47;;;;;;;50.63;8.75;;;23.90;92.10;;;;;;5092175;28;20036;-57
2020/12/16 09:50:15;;;;;;;38.70;9.07;;;23.80;91.80;;;;;;5111319;28;20047;-54
2020/12/16 09:52:43;;;;;;;38.88;7.82;;;23.70;92.20;;;;;;5102630;28;20130;-62
2020/12/16 09:55:17;;;;;;;28.73;7.78;;;23.90;92.40;;;;;;5105818;28;21197;-56
2020/12/16 09:57:45;;;;;;;41.88;9.23;;;24.00;92.60;;;;;;5106082;28;20474;-61
2020/12/16 10:00:13;;;;;;;39.95;9.02;;;24.10;92.60;;;;;;5106705;28;20068;-64
2020/12/16 10:02:42;;;;;;;38.67;8.20;;;24.10;92.40;;;;;;5107537;28;20081;-62
2020/12/16 10:05:09;;;;;;;40.08;9.35;;;24.20;92.10;;;;;;5104558;28;20028;-65
2020/12/16 10:07:37;;;;;;;36.47;8.63;;;24.20;92.00;;;;;;5108018;28;20028;-59
2020/12/16 10:10:05;;;;;;;34.08;8.00;;;24.30;91.90;;;;;;5107494;28;20077;-54
2020/12/16 10:12:33;;;;;;;39.55;8.30;;;24.30;91.80;;;;;;5108792;28;20032;-54
2020/12/16 10:15:01;;;;;;;36.38;8.65;;;24.30;91.60;;;;;;5087599;28;20135;-58
2020/12/16 10:17:29;;;;;;;31.63;7.50;;;24.40;91.60;;;;;;5108149;28;20032;-61
2020/12/16 10:19:56;;;;;;;33.00;7.95;;;24.40;91.50;;;;;;5109890;28;20052;-61
2020/12/16 10:22:23;;;;;;;32.38;7.03;;;24.40;91.40;;;;;;5109390;28;20023;-66
2020/12/16 10:24:51;;;;;;;41.45;8.02;;;24.40;91.30;;;;;;5104416;28;20439;-60
2020/12/16 10:27:19;;;;;;;36.65;8.07;;;24.50;91.30;;;;;;5109463;28;20020;-57
2020/12/16 10:29:47;;;;;;;39.55;8.85;;;24.40;91.20;;;;;;5109731;28;20039;-61
2020/12/16 10:32:19;;;;;;;37.30;8.27;;;24.50;91.20;;;;;;5109821;28;20036;-62
2020/12/16 10:34:45;;;;;;;;;;;24.50;91.10;;;;;;5086112;28;20024;-52
2020/12/16 10:37:13;;;;;;;31.25;7.45;;;24.50;91.10;;;;;;5109561;28;19919;-63
2020/12/16 10:39:44;;;;;;;31.05;7.22;;;24.50;91.10;;;;;;5110107;28;20020;-65
2020/12/16 10:42:11;;;;;;;25.10;6.20;;;24.50;91.10;;;;;;5111393;28;20027;-59
2020/12/16 10:44:39;;;;;;;28.60;7.55;;;24.50;91.00;;;;;;5105435;28;20035;-68
2020/12/16 10:47:07;;;;;;;33.10;8.02;;;24.50;90.90;;;;;;5113690;28;20064;-65
2020/12/16 10:49:35;;;;;;;29.70;7.22;;;24.50;90.90;;;;;;5113390;28;20035;-63
2020/12/16 10:52:14;;;;;;;27.80;7.03;;;24.50;90.90;;;;;;5112952;28;20031;-60
2020/12/16 10:54:42;;;;;;;32.60;9.65;;;24.50;90.90;;;;;;5105347;28;20058;-58
2020/12/16 10:57:10;;;;;;;25.95;5.90;;;24.50;90.80;;;;;;5112193;28;20016;-59
2020/12/16 10:59:37;;;;;;;32.13;7.85;;;24.50;90.80;;;;;;5113044;28;20092;-59
2020/12/16 11:02:06;;;;;;;25.45;6.43;;;24.50;90.80;;;;;;5113259;28;20027;-65
2020/12/16 11:04:33;;;;;;;26.08;6.45;;;24.50;90.70;;;;;;5105091;28;20027;-61
2020/12/16 11:07:00;;;;;;;25.70;6.80;;;24.50;90.70;;;;;;5112302;28;20027;-67
2020/12/16 11:09:28;;;;;;;29.52;7.57;;;24.50;90.70;;;;;;5112626;28;20027;-62
2020/12/16 11:11:56;;;;;;;28.02;7.47;;;24.50;90.70;;;;;;5112469;28;20090;-58
2020/12/16 11:14:25;;;;;;;25.15;6.57;;;24.50;90.70;;;;;;5103627;28;20012;-60
2020/12/16 11:16:54;;;;;;;24.10;6.85;;;24.50;90.70;;;;;;5110556;28;20064;-60
2020/12/16 11:19:23;;;;;;;28.77;7.78;;;24.50;90.70;;;;;;5112894;28;20043;-60
2020/12/16 11:21:53;;;;;;;30.05;7.35;;;24.50;90.70;;;;;;5113244;28;20548;-62
2020/12/16 11:24:23;;;;;;;26.27;6.78;;;24.50;90.70;;;;;;5086553;28;20051;-63
2020/12/16 11:26:54;;;;;;;24.00;6.30;;;24.50;90.60;;;;;;5112288;28;20046;-64
2020/12/16 11:29:23;;;;;;;23.00;6.18;;;24.50;90.60;;;;;;5110701;28;20036;-63
2020/12/16 11:31:57;;;;;;;21.23;6.47;;;24.50;90.60;;;;;;5094814;28;20032;-65
2020/12/16 11:34:27;;;;;;;25.90;7.20;;;24.50;90.60;;;;;;5104822;28;20076;-64
2020/12/16 11:36:57;;;;;;;25.60;6.28;;;24.50;90.50;;;;;;5111431;28;20052;-62
2020/12/16 11:39:25;;;;;;;25.83;6.18;;;24.50;90.60;;;;;;5112047;28;20282;-64
2020/12/16 11:41:54;;;;;;;22.88;5.72;;;24.50;90.40;;;;;;5111488;28;20549;-63
2020/12/16 11:44:23;;;;;;;22.27;5.65;;;24.50;90.40;;;;;;5104471;28;20034;-53
2020/12/16 11:46:57;;;;;;;20.48;6.07;;;24.50;90.50;;;;;;5112645;27;20034;-57
2020/12/16 11:49:27;;;;;;;18.33;5.50;;;24.50;90.30;;;;;;5112060;28;20023;-60
2020/12/16 11:51:55;;;;;;;23.58;6.05;;;24.50;90.40;;;;;;5111609;28;20473;-59
2020/12/16 11:54:23;;;;;;;25.63;5.95;;;24.50;90.40;;;;;;5084877;28;20036;-57
2020/12/16 11:56:51;;;;;;;27.23;6.65;;;24.50;90.30;;;;;;5111642;28;20020;-55
2020/12/16 11:59:18;;;;;;;23.95;6.28;;;24.50;90.30;;;;;;5112785;28;20031;-63
2020/12/16 12:01:45;;;;;;;23.65;6.25;;;24.40;90.30;;;;;;5110899;28;20035;-56
2020/12/16 12:04:13;;;;;;;25.48;6.07;;;24.40;90.30;;;;;;5104010;28;20023;-61
2020/12/16 12:06:43;;;;;;;24.15;5.85;;;24.40;90.40;;;;;;5111659;28;20073;-62
2020/12/16 12:09:11;;;;;;;22.67;5.72;;;24.40;90.30;;;;;;5110921;28;20023;-61
2020/12/16 12:11:38;;;;;;;23.38;6.18;;;24.40;90.30;;;;;;5111306;28;20110;-58
2020/12/16 12:14:06;;;;;;;22.88;5.78;;;24.40;90.30;;;;;;5094048;28;20028;-59
2020/12/16 12:16:33;;;;;;;21.23;5.80;;;24.40;90.30;;;;;;5093078;28;20089;-59
2020/12/16 12:19:00;;;;;;;21.70;5.90;;;24.40;90.30;;;;;;5092810;28;20131;-56
2020/12/16 12:21:28;;;;;;;29.17;7.75;;;24.30;90.30;;;;;;5093863;28;20044;-60
2020/12/16 12:23:55;;;;;;;25.10;6.80;;;24.30;90.30;;;;;;5093983;28;20024;-62
2020/12/16 12:26:22;;;;;;;22.27;6.20;;;24.30;90.30;;;;;;5093883;28;20021;-58
2020/12/16 12:28:50;;;;;;;25.35;5.80;;;24.30;90.30;;;;;;5093911;28;20487;-58
2020/12/16 12:31:17;;;;;;;16.80;4.32;;;24.30;90.40;;;;;;5093956;28;20047;-59
2020/12/16 12:33:44;;;;;;;21.45;6.35;;;24.30;90.40;;;;;;5093572;28;20036;-58
2020/12/16 12:36:12;;;;;;;18.90;5.47;;;24.30;90.40;;;;;;5093012;28;20054;-59
2020/12/16 12:38:39;;;;;;;18.85;5.43;;;24.30;90.40;;;;;;5093876;28;20024;-58
2020/12/16 12:41:07;;;;;;;22.73;5.38;;;24.20;90.40;;;;;;5093631;28;20418;-59
2020/12/16 12:43:35;;;;;;;24.38;5.72;;;24.20;90.40;;;;;;5093350;28;20421;-57
2020/12/16 12:46:02;;;;;;;19.73;6.05;;;24.20;90.40;;;;;;5093620;28;20028;-54
2020/12/16 12:48:30;;;;;;;18.27;5.32;;;24.20;90.50;;;;;;5093767;28;20066;-58
2020/12/16 12:50:57;;;;;;;23.60;6.15;;;24.20;90.40;;;;;;5093641;28;20024;-56